Time;durP1;ratioP1;P1;durP2;ratioP2;P2;SDS_P1;SDS_P2;PMS_P1;PMS_P2;Temp;Humidity;BMP_temperature;BMP_pressure;BME280_temperature;BME280_humidity;BME280_pressure;Samples;Min_cycle;Max_cycle;Signal;HPM_P1;HPM_P2
2022/07/06 04:30:34;;;;;;;;;4.25;4.25;;;;;17.46;57.24;102296.81;5088489;27;45464;-75
2022/07/06 04:32:59;;;;;;;;;7.50;5.00;;;;;17.42;56.74;102275.38;5036988;28;45201;-76
2022/07/06 04:35:25;;;;;;;;;6.00;4.50;;;;;17.52;56.91;102290.22;5036919;28;45373;-76
2022/07/06 04:37:50;;;;;;;;;2.50;2.50;;;;;17.59;56.96;102299.81;5018648;28;46006;-76
2022/07/06 04:40:15;;;;;;;;;5.00;5.00;;;;;17.69;56.77;102295.72;5017053;28;45416;-77
2022/07/06 04:42:41;;;;;;;;;3.00;3.00;;;;;17.74;56.46;102289.09;5016923;28;45314;-76
2022/07/06 04:45:06;;;;;;;;;3.75;3.75;;;;;17.81;56.46;102278.78;5016955;28;45585;-76
2022/07/06 04:47:32;;;;;;;;;4.25;4.25;;;;;17.83;56.04;102290.44;5016707;28;45384;-75
2022/07/06 04:49:57;;;;;;;;;5.00;5.00;;;;;17.86;56.18;102287.59;5016776;28;45436;-75
2022/07/06 04:52:22;;;;;;;;;4.00;4.00;;;;;17.74;56.25;102263.78;5016596;28;45257;-76
2022/07/06 04:54:48;;;;;;;;;4.75;4.50;;;;;17.88;56.00;102280.22;4999074;28;45323;-75
2022/07/06 04:57:13;;;;;;;;;5.00;5.00;;;;;17.99;55.94;102294.13;5016729;28;45551;-76
2022/07/06 04:59:39;;;;;;;;;9.00;6.00;;;;;18.04;55.64;102291.13;5016534;28;45444;-75
2022/07/06 05:02:04;;;;;;;;;5.75;5.75;;;;;18.08;55.43;102295.47;5016767;28;45576;-76
2022/07/06 05:04:29;;;;;;;;;4.75;4.75;;;;;18.05;55.75;102285.63;5016631;28;45444;-76
2022/07/06 05:06:55;;;;;;;;;5.50;5.50;;;;;18.11;55.76;102292.59;5016370;28;45933;-76
2022/07/06 05:09:20;;;;;;;;;5.00;5.00;;;;;18.08;55.15;102292.75;5016129;28;46126;-76
2022/07/06 05:11:45;;;;;;;;;6.00;5.75;;;;;18.09;55.37;102276.38;5016353;28;45596;-75
2022/07/06 05:14:11;;;;;;;;;5.75;5.00;;;;;18.21;55.22;102307.41;5016764;28;45451;-75
2022/07/06 05:16:36;;;;;;;;;4.00;4.00;;;;;18.21;55.20;102276.69;4998902;28;47465;-74
2022/07/06 05:19:02;;;;;;;;;6.25;6.25;;;;;18.31;55.00;102292.41;5020269;28;45434;-77
2022/07/06 05:21:27;;;;;;;;;6.25;5.75;;;;;18.42;54.91;102295.44;5018309;28;45559;-75
2022/07/06 05:23:53;;;;;;;;;6.00;6.00;;;;;18.45;54.50;102291.69;5016310;28;45447;-73
2022/07/06 05:26:18;;;;;;;;;5.25;5.25;;;;;18.41;54.60;102271.94;5016630;28;45349;-77
2022/07/06 05:28:44;;;;;;;;;8.00;6.00;;;;;18.52;54.27;102271.38;5016233;28;45373;-77
2022/07/06 05:31:09;;;;;;;;;5.00;5.00;;;;;18.65;54.12;102288.75;5016366;28;45264;-77
2022/07/06 05:33:34;;;;;;;;;4.75;4.75;;;;;18.42;54.04;102260.13;5016253;28;45200;-83
2022/07/06 05:36:00;;;;;;;;;5.25;5.25;;;;;18.58;54.26;102287.34;5032553;28;45436;-78
2022/07/06 05:38:25;;;;;;;;;7.50;7.50;;;;;18.59;54.22;102275.53;5016112;28;45339;-76
2022/07/06 05:40:51;;;;;;;;;6.75;5.00;;;;;18.58;54.19;102283.75;5023800;28;45333;-76
2022/07/06 05:43:17;;;;;;;;;6.00;5.25;;;;;18.61;55.05;102286.31;5035793;28;45320;-73
2022/07/06 05:45:42;;;;;;;;;4.00;4.00;;;;;18.78;54.34;102299.84;5035988;28;45280;-74
2022/07/06 05:50:52;;;;;;;;;7.50;6.00;;;;;18.71;53.75;102303.88;5019387;28;45326;-75
2022/07/06 05:53:17;;;;;;;;;6.00;6.00;;;;;18.69;54.71;102303.06;5034929;28;45258;-75
2022/07/06 05:55:43;;;;;;;;;5.00;5.00;;;;;18.79;55.25;102307.03;5035404;28;46163;-75
2022/07/06 05:58:08;;;;;;;;;4.25;4.25;;;;;18.85;54.06;102304.84;5035467;28;45376;-75
2022/07/06 06:00:34;;;;;;;;;4.00;4.00;;;;;19.04;54.17;102312.84;5036169;28;45716;-69
2022/07/06 06:02:59;;;;;;;;;6.00;6.00;;;;;19.13;53.72;102314.19;5034706;28;45371;-70
2022/07/06 06:05:25;;;;;;;;;5.00;5.00;;;;;19.15;53.68;102309.50;5035123;28;46102;-71
2022/07/06 06:07:52;;;;;;;;;6.25;6.25;;;;;19.14;53.27;102316.78;5035054;28;45304;-70
2022/07/06 06:10:19;;;;;;;;;4.00;4.00;;;;;19.06;53.39;102310.91;5035257;28;45231;-71
2022/07/06 06:12:45;;;;;;;;;7.50;7.00;;;;;18.97;53.84;102316.84;5035127;28;45475;-71
2022/07/06 06:15:11;;;;;;;;;4.75;3.75;;;;;18.94;53.85;102310.72;5035408;28;45388;-70
2022/07/06 06:17:37;;;;;;;;;6.00;6.00;;;;;18.92;53.95;102320.81;5035308;28;45328;-71
2022/07/06 06:20:05;;;;;;;;;6.25;6.25;;;;;18.93;54.04;102326.16;5030402;28;45330;-71
2022/07/06 06:22:30;;;;;;;;;8.00;6.00;;;;;18.96;54.16;102326.00;5034533;28;45315;-70
2022/07/06 06:24:55;;;;;;;;;7.00;7.00;;;;;19.00;53.89;102322.13;5035273;28;46302;-71
2022/07/06 06:27:21;;;;;;;;;6.00;6.00;;;;;19.04;53.85;102321.00;5034738;28;45395;-71
2022/07/06 06:29:46;;;;;;;;;7.50;7.50;;;;;19.01;53.42;102314.84;5035252;28;45407;-71
2022/07/06 06:32:13;;;;;;;;;7.25;7.25;;;;;19.01;53.74;102325.72;5034351;28;45330;-72
2022/07/06 06:34:39;;;;;;;;;9.00;7.00;;;;;18.93;53.71;102312.56;5035021;28;46609;-70
2022/07/06 06:37:05;;;;;;;;;7.00;5.50;;;;;18.96;53.83;102315.13;5021876;28;45349;-70
2022/07/06 06:39:30;;;;;;;;;4.75;4.75;;;;;18.96;54.06;102306.97;5026313;28;45258;-70
2022/07/06 06:41:56;;;;;;;;;7.75;7.75;;;;;19.01;53.70;102306.69;5034624;28;45335;-69
2022/07/06 06:44:24;;;;;;;;;6.25;6.25;;;;;19.03;53.63;102311.09;5035133;28;45186;-69
2022/07/06 06:46:52;;;;;;;;;8.25;6.75;;;;;19.06;53.13;102312.75;5034853;28;45383;-69
2022/07/06 06:49:18;;;;;;;;;6.00;6.00;;;;;19.13;53.05;102327.78;5034978;28;45395;-69
2022/07/06 06:51:43;;;;;;;;;7.25;7.00;;;;;19.11;53.34;102325.13;5034812;28;45373;-69
2022/07/06 06:54:09;;;;;;;;;6.00;6.00;;;;;19.01;53.30;102302.16;5034703;28;46267;-69
2022/07/06 06:56:34;;;;;;;;;5.00;5.00;;;;;19.18;52.92;102318.38;5034615;28;45356;-70
2022/07/06 06:59:01;;;;;;;;;6.00;6.00;;;;;19.26;52.87;102332.41;5035056;28;45584;-71
2022/07/06 07:01:27;;;;;;;;;8.75;8.50;;;;;19.29;52.07;102328.66;5034458;28;45418;-69
2022/07/06 07:03:54;;;;;;;;;5.25;5.25;;;;;19.33;52.12;102330.22;5034476;28;46192;-69
2022/07/06 07:06:20;;;;;;;;;5.25;5.25;;;;;19.33;51.75;102321.16;5034532;28;45313;-69
2022/07/06 07:08:45;;;;;;;;;7.25;5.25;;;;;19.46;51.98;102333.13;5034732;28;45334;-70
2022/07/06 07:11:10;;;;;;;;;8.25;7.75;;;;;19.48;51.39;102326.63;5034571;28;49260;-69
2022/07/06 07:13:36;;;;;;;;;6.25;6.25;;;;;19.55;51.26;102324.47;5034766;28;45552;-69
2022/07/06 07:16:01;;;;;;;;;5.25;5.25;;;;;19.65;51.03;102337.41;5034429;28;45317;-69
2022/07/06 07:18:26;;;;;;;;;6.00;6.00;;;;;19.69;50.51;102334.53;5030819;28;45304;-69
2022/07/06 07:20:52;;;;;;;;;6.25;5.00;;;;;19.67;50.59;102322.84;5032993;28;45560;-70
2022/07/06 07:23:17;;;;;;;;;8.75;7.50;;;;;19.67;50.25;102331.88;5033547;28;45923;-70
2022/07/06 07:25:42;;;;;;;;;9.00;6.25;;;;;19.58;50.28;102321.53;5034163;28;45337;-69
2022/07/06 07:28:08;;;;;;;;;5.25;5.25;;;;;19.66;50.32;102335.56;5034484;28;45796;-69
2022/07/06 07:30:34;;;;;;;;;6.75;6.75;;;;;19.69;49.97;102318.19;5034096;28;45398;-69
2022/07/06 07:33:00;;;;;;;;;6.50;6.50;;;;;19.75;50.03;102321.41;5034493;28;46125;-70
2022/07/06 07:35:26;;;;;;;;;8.25;5.25;;;;;19.85;49.66;102329.91;5034250;28;45333;-70
2022/07/06 07:37:51;;;;;;;;;9.75;6.50;;;;;19.93;49.64;102325.78;5016413;28;45325;-69
2022/07/06 07:40:17;;;;;;;;;6.00;6.00;;;;;19.99;49.10;102330.84;5032217;28;45548;-69
2022/07/06 07:42:43;;;;;;;;;8.00;4.75;;;;;20.06;48.75;102328.66;5034079;28;45285;-70
2022/07/06 07:45:08;;;;;;;;;5.50;5.50;;;;;19.97;48.56;102316.47;5034158;28;45483;-69
2022/07/06 07:47:34;;;;;;;;;9.50;7.00;;;;;20.05;48.34;102316.00;5034292;28;45573;-70
2022/07/06 07:49:59;;;;;;;;;3.25;3.25;;;;;20.06;48.97;102315.03;5033908;28;45516;-69
2022/07/06 07:52:25;;;;;;;;;5.00;4.00;;;;;20.19;49.53;102315.16;5034023;28;46078;-70
2022/07/06 07:54:50;;;;;;;;;4.00;4.00;;;;;20.34;48.91;102317.84;5033944;28;45454;-69
2022/07/06 07:57:15;;;;;;;;;6.75;6.00;;;;;20.56;47.62;102322.84;5033939;28;45372;-70
2022/07/06 07:59:42;;;;;;;;;4.00;4.00;;;;;20.62;47.97;102310.66;5034102;28;45482;-68
2022/07/06 08:02:07;;;;;;;;;5.75;4.00;;;;;20.80;47.62;102314.06;5015884;28;46624;-71
2022/07/06 08:04:33;;;;;;;;;3.75;3.75;;;;;20.92;47.03;102316.03;5034018;28;45305;-70
2022/07/06 08:06:58;;;;;;;;;6.75;5.75;;;;;21.05;45.90;102316.97;5034098;28;45323;-70
2022/07/06 08:09:23;;;;;;;;;4.25;4.25;;;;;21.07;45.03;102313.19;5015781;28;45394;-69
2022/07/06 08:11:49;;;;;;;;;6.00;5.00;;;;;20.99;45.53;102320.97;5033786;28;45329;-71
2022/07/06 08:14:14;;;;;;;;;5.75;5.00;;;;;20.89;45.62;102318.94;5034066;28;45462;-70
2022/07/06 08:16:40;;;;;;;;;7.50;4.50;;;;;20.80;46.54;102314.94;5034025;28;45739;-71
2022/07/06 08:19:05;;;;;;;;;6.50;5.00;;;;;20.87;46.14;102316.31;5028678;28;45327;-69
2022/07/06 08:21:31;;;;;;;;;5.75;5.00;;;;;20.89;45.57;102313.50;5033838;28;45284;-70
2022/07/06 08:23:57;;;;;;;;;6.00;4.75;;;;;20.87;45.53;102316.31;5033640;28;45607;-70
2022/07/06 08:26:23;;;;;;;;;4.00;4.00;;;;;20.88;45.97;102322.63;5033798;28;45217;-70
2022/07/06 08:28:48;;;;;;;;;6.25;6.00;;;;;20.80;45.83;102314.06;5033670;28;45376;-71
2022/07/06 08:31:14;;;;;;;;;5.00;5.00;;;;;20.88;45.58;102323.50;5033568;28;46442;-70
2022/07/06 08:33:40;;;;;;;;;2.50;2.50;;;;;20.88;46.14;102314.47;5035206;28;45345;-71
2022/07/06 08:36:05;;;;;;;;;5.75;4.25;;;;;21.02;45.49;102325.34;5032086;28;45365;-69
2022/07/06 08:38:31;;;;;;;;;4.00;4.00;;;;;21.01;44.48;102320.88;5020664;28;45559;-70
2022/07/06 08:40:57;;;;;;;;;7.50;4.25;;;;;21.05;45.27;102320.56;5036824;28;46121;-70
2022/07/06 08:43:23;;;;;;;;;4.00;4.00;;;;;21.06;44.84;102324.19;5036972;28;45316;-70
2022/07/06 08:45:52;;;;;;;;;6.00;6.00;;;;;21.10;45.45;102318.41;5037091;28;45269;-70
2022/07/06 08:48:18;;;;;;;;;4.00;4.00;;;;;21.10;44.46;102329.31;5036696;28;45446;-71
2022/07/06 08:50:44;;;;;;;;;5.25;5.25;;;;;21.02;44.45;102314.44;5036517;28;45286;-68
2022/07/06 08:53:09;;;;;;;;;6.25;4.75;;;;;21.10;44.58;102312.97;5036645;28;45834;-70
2022/07/06 08:55:35;;;;;;;;;4.00;4.00;;;;;21.17;45.09;102309.84;5018844;28;45623;-69
2022/07/06 08:58:01;;;;;;;;;6.00;5.00;;;;;21.22;45.31;102308.59;5036711;28;45337;-70
2022/07/06 09:00:26;;;;;;;;;6.00;6.00;;;;;21.37;44.58;102302.13;5018573;28;47151;-70
2022/07/06 09:02:56;;;;;;;;;3.00;3.00;;;;;21.43;44.46;102293.56;5036716;28;45408;-68
2022/07/06 09:05:22;;;;;;;;;4.75;4.75;;;;;21.39;44.59;102292.00;5018815;28;45251;-69
2022/07/06 09:07:49;;;;;;;;;4.25;4.25;;;;;21.42;44.16;102296.38;5036298;28;45357;-69
2022/07/06 09:10:17;;;;;;;;;4.50;4.50;;;;;21.40;43.67;102299.19;5036570;28;46160;-70
2022/07/06 09:12:43;;;;;;;;;4.75;4.75;;;;;21.40;43.98;102301.94;5036109;28;45321;-73
2022/07/06 09:15:08;;;;;;;;;5.00;5.00;;;;;21.38;44.19;102301.16;5036900;28;45340;-70
2022/07/06 09:17:39;;;;;;;;;4.50;4.50;;;;;21.41;44.05;102302.81;5036355;28;45364;-69
2022/07/06 09:20:08;;;;;;;;;4.00;2.75;;;;;21.49;43.82;102304.03;5031451;28;46137;-70
2022/07/06 09:22:33;;;;;;;;;4.75;3.75;;;;;21.55;42.80;102289.09;5036095;28;45273;-70
2022/07/06 09:25:08;;;;;;;;;4.00;4.00;;;;;21.64;44.37;102293.06;5036493;28;45337;-70
2022/07/06 09:27:39;;;;;;;;;6.00;4.75;;;;;21.70;43.91;102282.59;5036055;28;45312;-70
2022/07/06 09:30:05;;;;;;;;;2.75;2.75;;;;;21.78;43.35;102282.94;5036139;28;46195;-71
2022/07/06 09:32:31;;;;;;;;;4.00;2.00;;;;;21.85;43.57;102284.31;5036066;28;45394;-70
2022/07/06 09:34:56;;;;;;;;;6.25;5.00;;;;;21.89;42.05;102294.00;5036240;28;45480;-69
2022/07/06 09:37:23;;;;;;;;;6.25;5.00;;;;;21.86;42.57;102287.91;5022521;28;45432;-69
2022/07/06 09:39:49;;;;;;;;;3.00;3.00;;;;;21.82;42.37;102287.22;5030451;28;46121;-70
2022/07/06 09:42:14;;;;;;;;;3.00;3.00;;;;;21.88;42.68;102284.06;5035810;28;45305;-71
2022/07/06 09:44:41;;;;;;;;;4.00;4.00;;;;;21.91;42.40;102277.53;5035234;28;45319;-70
2022/07/06 09:47:09;;;;;;;;;3.75;3.75;;;;;21.97;42.55;102276.22;5035997;28;45506;-70
2022/07/06 09:49:35;;;;;;;;;3.50;3.25;;;;;22.03;40.72;102289.50;5035725;28;46967;-69
2022/07/06 09:52:03;;;;;;;;;4.00;4.00;;;;;22.09;42.12;102291.81;5035868;28;45273;-69
2022/07/06 09:54:29;;;;;;;;;3.50;3.50;;;;;22.09;42.54;102278.13;5035657;28;45392;-69
2022/07/06 09:56:55;;;;;;;;;7.25;4.00;;;;;22.18;41.12;102286.56;5035710;28;45431;-69
2022/07/06 09:59:23;;;;;;;;;3.00;3.00;;;;;22.20;42.24;102289.19;5035769;28;46078;-69
2022/07/06 10:01:54;;;;;;;;;3.00;3.00;;;;;22.24;41.31;102297.06;5035845;28;45348;-70
2022/07/06 10:04:20;;;;;;;;;3.75;3.75;;;;;22.27;41.79;102296.84;5035751;28;45404;-70
2022/07/06 10:06:46;;;;;;;;;6.00;4.75;;;;;22.29;41.76;102288.53;5035684;28;45316;-70
2022/07/06 10:09:12;;;;;;;;;3.00;3.00;;;;;22.30;41.40;102283.94;5035454;28;45290;-70
2022/07/06 10:11:44;;;;;;;;;3.50;3.50;;;;;22.38;42.04;102279.66;5035573;28;45305;-70
2022/07/06 10:14:11;;;;;;;;;2.25;2.25;;;;;22.45;41.44;102285.59;5035980;28;45324;-71
2022/07/06 10:16:38;;;;;;;;;3.00;3.00;;;;;22.53;41.88;102288.66;5035976;28;45192;-70
2022/07/06 10:19:08;;;;;;;;;3.75;2.25;;;;;22.55;41.29;102273.00;5030033;28;45420;-71
2022/07/06 10:21:38;;;;;;;;;2.75;2.75;;;;;22.63;41.38;102276.94;5035402;28;45340;-69
2022/07/06 10:24:05;;;;;;;;;4.00;4.00;;;;;22.65;40.30;102269.50;5035200;28;45225;-69
2022/07/06 10:26:33;;;;;;;;;3.00;3.00;;;;;22.75;40.94;102280.69;5035112;28;45372;-69
2022/07/06 10:28:59;;;;;;;;;2.50;2.00;;;;;22.79;41.24;102279.47;5035138;28;46090;-70
2022/07/06 10:31:26;;;;;;;;;3.25;3.25;;;;;22.86;40.72;102280.78;5035053;28;45428;-71
2022/07/06 10:33:53;;;;;;;;;3.00;3.00;;;;;22.89;40.69;102277.78;5035172;28;45450;-69
2022/07/06 10:36:18;;;;;;;;;5.75;4.25;;;;;22.88;40.01;102289.72;5029699;28;45230;-69
2022/07/06 10:38:49;;;;;;;;;2.75;2.75;;;;;22.83;40.88;102281.00;5020678;28;45739;-69
2022/07/06 10:41:15;;;;;;;;;3.50;3.00;;;;;22.79;40.29;102270.41;5035115;28;45784;-70
2022/07/06 10:43:45;;;;;;;;;4.00;4.00;;;;;22.89;40.56;102279.66;5034908;28;45265;-69
2022/07/06 10:46:16;;;;;;;;;3.50;2.50;;;;;22.96;40.43;102287.31;5035264;28;45332;-69
2022/07/06 10:48:44;;;;;;;;;4.00;4.00;;;;;22.98;40.53;102279.84;5034973;28;45456;-69
2022/07/06 10:51:26;;;;;;;;;4.75;4.75;;;;;23.03;39.71;102282.28;5035039;28;45268;-69
2022/07/06 10:54:01;;;;;;;;;4.25;4.25;;;;;23.07;40.02;102277.44;5034866;28;45356;-70
2022/07/06 10:56:40;;;;;;;;;4.25;4.25;;;;;23.09;39.94;102270.00;5034409;28;45873;-69
2022/07/06 10:59:11;;;;;;;;;5.75;3.75;;;;;23.20;40.36;102273.69;5034819;28;46223;-70
2022/07/06 11:01:36;;;;;;;;;3.00;3.00;;;;;23.24;40.66;102268.84;5016598;28;45307;-70
2022/07/06 11:04:02;;;;;;;;;4.00;3.75;;;;;23.29;40.27;102274.84;5034608;28;45468;-69
2022/07/06 11:06:32;;;;;;;;;5.75;4.50;;;;;23.30;40.42;102274.75;5034237;28;45970;-69
2022/07/06 11:09:02;;;;;;;;;5.75;5.00;;;;;23.40;39.93;102283.13;5034284;28;45326;-69
2022/07/06 11:11:33;;;;;;;;;4.00;4.00;;;;;23.44;40.56;102259.13;5034239;28;45286;-69
2022/07/06 11:14:06;;;;;;;;;9.25;6.00;;;;;23.38;40.34;102252.28;5034580;28;45336;-69
2022/07/06 11:16:36;;;;;;;;;8.75;8.00;;;;;23.37;39.82;102256.00;5034686;28;45474;-69
2022/07/06 11:19:09;;;;;;;;;7.25;6.00;;;;;23.37;39.83;102250.53;5026018;28;46394;-69
2022/07/06 11:21:45;;;;;;;;;7.00;4.50;;;;;23.43;40.10;102249.16;5025348;28;45497;-70
2022/07/06 11:24:14;;;;;;;;;5.00;5.00;;;;;23.49;40.30;102251.47;5034107;28;45498;-69
2022/07/06 11:26:41;;;;;;;;;5.25;5.25;;;;;23.62;40.20;102249.56;5034067;28;46473;-69
2022/07/06 11:29:09;;;;;;;;;5.25;5.25;;;;;23.69;40.09;102246.22;5034112;28;45463;-70
2022/07/06 11:31:40;;;;;;;;;6.00;6.00;;;;;23.77;40.51;102243.75;5034213;28;45473;-69
2022/07/06 11:34:06;;;;;;;;;6.50;6.25;;;;;23.80;39.79;102248.13;5034714;28;45399;-70
2022/07/06 11:36:32;;;;;;;;;6.75;6.75;;;;;23.81;39.51;102243.53;5026934;28;45348;-69
2022/07/06 11:38:58;;;;;;;;;6.50;6.50;;;;;23.86;39.59;102238.53;5021421;28;46625;-69
2022/07/06 11:41:24;;;;;;;;;6.25;6.25;;;;;23.97;40.01;102241.31;5033826;28;45331;-69
2022/07/06 11:43:51;;;;;;;;;7.00;7.00;;;;;24.06;39.63;102246.09;5034458;28;45353;-70
2022/07/06 11:46:24;;;;;;;;;6.25;6.25;;;;;24.12;39.37;102251.06;5034267;28;45265;-69
2022/07/06 11:48:52;;;;;;;;;9.50;8.50;;;;;24.15;38.80;102239.88;5034085;28;45426;-69
2022/07/06 11:51:17;;;;;;;;;6.50;6.50;;;;;24.18;38.29;102234.13;5034144;28;45344;-69
2022/07/06 11:53:48;;;;;;;;;5.50;5.50;;;;;24.27;38.21;102233.44;5034322;28;45498;-69
2022/07/06 11:56:21;;;;;;;;;6.00;6.00;;;;;24.33;37.80;102219.22;5033699;28;45403;-69
2022/07/06 11:58:49;;;;;;;;;5.50;5.25;;;;;24.40;38.38;102212.28;5033876;28;46174;-68
2022/07/06 12:01:15;;;;;;;;;6.00;6.00;;;;;24.38;37.74;102208.78;5033924;28;45427;-70
2022/07/06 12:03:42;;;;;;;;;5.50;5.50;;;;;24.58;37.34;102218.13;5034221;28;45340;-69
2022/07/06 12:06:19;;;;;;;;;11.00;7.00;;;;;24.61;37.47;102217.88;5034007;28;45233;-70
2022/07/06 12:08:56;;;;;;;;;7.50;6.50;;;;;24.62;36.97;102218.75;5035467;28;45247;-69
2022/07/06 12:11:29;;;;;;;;;6.50;5.25;;;;;24.62;37.60;102216.00;5019087;28;45675;-69
2022/07/06 12:14:11;;;;;;;;;6.00;6.00;;;;;24.48;37.64;102211.66;5037625;28;45592;-69
2022/07/06 12:16:37;;;;;;;;;6.25;6.25;;;;;24.62;38.11;102216.88;5037693;28;45337;-70
2022/07/06 12:19:04;;;;;;;;;6.50;6.50;;;;;24.72;36.65;102217.00;5031929;28;45338;-70
2022/07/06 12:21:30;;;;;;;;;7.00;7.00;;;;;24.80;36.24;102209.88;5037575;28;45847;-70
2022/07/06 12:23:56;;;;;;;;;5.75;5.00;;;;;24.87;36.86;102205.63;5037236;28;45450;-69
2022/07/06 12:26:25;;;;;;;;;5.00;5.00;;;;;25.03;36.74;102208.00;5037017;28;45402;-69
2022/07/06 12:29:13;;;;;;;;;5.00;4.00;;;;;25.17;36.27;102199.50;5037048;28;46122;-68
2022/07/06 12:31:43;;;;;;;;;4.00;4.00;;;;;25.35;36.07;102210.75;5037129;28;45277;-69
2022/07/06 12:34:19;;;;;;;;;5.00;5.00;;;;;25.53;36.28;102200.06;5037343;28;45336;-69
2022/07/06 12:36:47;;;;;;;;;5.00;5.00;;;;;25.60;36.05;102188.44;5027971;28;45693;-70
2022/07/06 12:39:14;;;;;;;;;6.25;5.00;;;;;25.74;35.18;102194.66;5008463;28;46279;-69
2022/07/06 12:41:47;;;;;;;;;6.00;6.00;;;;;25.91;35.81;102189.41;5036586;28;45227;-71
2022/07/06 12:44:13;;;;;;;;;5.25;4.00;;;;;26.07;34.86;102194.44;5037159;28;45505;-69
2022/07/06 12:46:41;;;;;;;;;6.25;5.00;;;;;25.99;35.12;102197.00;5036809;28;45426;-68
2022/07/06 12:49:17;;;;;;;;;5.00;5.00;;;;;25.94;34.67;102199.28;5036631;28;46152;-69
2022/07/06 12:52:12;;;;;;;;;4.50;4.50;;;;;25.72;35.46;102188.41;5036422;28;45392;-70
2022/07/06 12:54:49;;;;;;;;;6.00;5.00;;;;;25.80;35.44;102183.09;5036035;28;45268;-68
2022/07/06 12:57:25;;;;;;;;;3.00;3.00;;;;;25.79;35.67;102186.84;5036542;28;45556;-69
2022/07/06 12:59:54;;;;;;;;;5.00;4.00;;;;;25.97;35.05;102180.63;5036495;28;46181;-69
2022/07/06 13:02:36;;;;;;;;;4.25;3.00;;;;;26.14;35.35;102179.13;5036707;28;45242;-70
2022/07/06 13:05:08;;;;;;;;;4.25;4.25;;;;;26.13;34.02;102165.50;5037021;28;45431;-69
2022/07/06 13:07:35;;;;;;;;;4.50;4.50;;;;;26.21;34.33;102165.69;5036261;28;46178;-70
2022/07/06 13:10:05;;;;;;;;;6.75;3.75;;;;;26.19;34.46;102171.38;5036374;28;46374;-68
2022/07/06 13:12:30;;;;;;;;;4.50;4.50;;;;;26.16;34.50;102155.13;5036337;28;45373;-70
2022/07/06 13:14:56;;;;;;;;;4.00;4.00;;;;;26.06;34.47;102148.72;5036702;28;45317;-70
2022/07/06 13:17:22;;;;;;;;;3.25;3.25;;;;;26.06;34.33;102143.22;5036413;28;45562;-70
2022/07/06 13:19:47;;;;;;;;;3.50;3.50;;;;;26.17;34.59;102150.50;5029624;28;46084;-70
2022/07/06 13:22:13;;;;;;;;;3.50;3.50;;;;;26.35;33.36;102151.63;5036414;28;45429;-69
2022/07/06 13:24:39;;;;;;;;;3.00;3.00;;;;;26.54;32.67;102146.19;5036481;28;45411;-69
2022/07/06 13:27:05;;;;;;;;;3.75;3.75;;;;;26.69;32.27;102141.19;5035619;28;45289;-69
2022/07/06 13:29:30;;;;;;;;;1.75;1.75;;;;;26.75;32.79;102127.72;5036098;28;45980;-71
2022/07/06 13:31:56;;;;;;;;;4.00;2.50;;;;;26.61;32.20;102130.88;5035967;28;45401;-69
2022/07/06 13:34:21;;;;;;;;;2.50;2.50;;;;;26.62;32.80;102135.38;5036145;28;45489;-69
2022/07/06 13:36:47;;;;;;;;;3.75;3.75;;;;;26.76;32.61;102114.84;5026593;28;45503;-70
2022/07/06 13:39:12;;;;;;;;;3.75;3.00;;;;;26.92;32.92;102106.91;5016180;28;45629;-70
2022/07/06 13:41:37;;;;;;;;;3.25;2.75;;;;;27.18;32.30;102109.97;5031912;28;45219;-70
2022/07/06 13:44:03;;;;;;;;;3.00;2.75;;;;;27.25;32.22;102111.13;5036192;28;45303;-69
2022/07/06 13:46:30;;;;;;;;;3.00;3.00;;;;;27.23;31.27;102093.88;5035971;28;45463;-69
2022/07/06 13:48:57;;;;;;;;;2.25;2.25;;;;;27.54;31.80;102104.75;5035980;28;46293;-69
2022/07/06 13:51:23;;;;;;;;;4.50;3.00;;;;;27.69;31.71;102108.78;5035816;28;45353;-69
2022/07/06 13:53:49;;;;;;;;;2.75;2.75;;;;;27.80;31.29;102103.97;5017949;28;45471;-69
2022/07/06 13:56:16;;;;;;;;;4.50;4.50;;;;;27.82;31.37;102088.13;5035472;28;45388;-70
2022/07/06 13:58:41;;;;;;;;;3.75;3.75;;;;;28.06;31.54;102093.16;5035723;28;45326;-70
2022/07/06 14:01:06;;;;;;;;;3.00;3.00;;;;;28.26;31.35;102082.03;5035438;28;45226;-69
2022/07/06 14:03:32;;;;;;;;;3.00;3.00;;;;;28.34;30.26;102090.41;5017774;28;45267;-69
2022/07/06 14:05:59;;;;;;;;;2.00;2.00;;;;;28.28;30.91;102080.88;5035675;28;45356;-69
2022/07/06 14:08:26;;;;;;;;;2.00;2.00;;;;;28.51;30.32;102084.09;5035677;28;46172;-70
2022/07/06 14:10:52;;;;;;;;;3.75;3.75;;;;;28.67;29.16;102067.69;5035349;28;45411;-69
2022/07/06 14:13:18;;;;;;;;;2.00;2.00;;;;;28.88;29.94;102073.84;5035675;28;45432;-69
2022/07/06 14:15:43;;;;;;;;;1.00;1.00;;;;;29.12;29.75;102061.28;5035493;28;45364;-70
2022/07/06 14:18:09;;;;;;;;;2.00;2.00;;;;;29.34;29.32;102060.78;5034339;28;46544;-69
2022/07/06 14:20:34;;;;;;;;;2.00;2.00;;;;;29.49;29.01;102072.16;5031886;28;45345;-69
2022/07/06 14:22:59;;;;;;;;;1.25;1.00;;;;;29.64;27.04;102074.16;5035787;28;45380;-70
2022/07/06 14:25:25;;;;;;;;;1.00;1.00;;;;;29.39;27.50;102066.72;5034980;28;45561;-69
2022/07/06 14:27:50;;;;;;;;;1.50;1.00;;;;;29.37;28.60;102063.25;5035290;28;46034;-69
2022/07/06 14:30:15;;;;;;;;;0.50;0.50;;;;;29.32;28.25;102063.72;5035407;28;45241;-69
2022/07/06 14:32:43;;;;;;;;;0.75;0.75;;;;;29.51;28.41;102064.59;5035018;28;45410;-69
2022/07/06 14:35:09;;;;;;;;;0.75;0.00;;;;;29.77;27.27;102062.69;5035043;28;45365;-69
2022/07/06 14:37:34;;;;;;;;;0.00;0.00;;;;;29.86;27.27;102067.19;5019036;28;45617;-70
2022/07/06 14:40:00;;;;;;;;;0.00;0.00;;;;;29.67;27.52;102057.25;5031172;28;45276;-70
2022/07/06 14:42:25;;;;;;;;;0.25;0.25;;;;;29.63;27.13;102068.78;5017471;28;45360;-69
2022/07/06 14:44:51;;;;;;;;;0.25;0.25;;;;;29.54;27.58;102067.00;5035097;28;45407;-70
2022/07/06 14:47:16;;;;;;;;;2.75;0.00;;;;;29.51;27.63;102057.16;5035141;28;45511;-69
2022/07/06 14:49:41;;;;;;;;;2.00;1.00;;;;;29.65;28.13;102051.03;5035106;28;45374;-70
2022/07/06 14:52:08;;;;;;;;;0.00;0.00;;;;;29.86;27.82;102041.47;5035500;28;45370;-68
2022/07/06 14:54:34;;;;;;;;;0.50;0.50;;;;;29.94;26.67;102034.09;5034969;28;45513;-70
2022/07/06 14:57:00;;;;;;;;;0.75;0.75;;;;;29.92;27.58;102044.44;5034795;28;45964;-69
2022/07/06 14:59:25;;;;;;;;;0.75;0.75;;;;;30.05;27.15;102041.25;5034906;28;45418;-70
2022/07/06 15:01:51;;;;;;;;;1.50;1.50;;;;;30.03;27.54;102049.69;5035253;28;45294;-70
2022/07/06 15:04:16;;;;;;;;;1.75;0.75;;;;;30.21;26.77;102041.31;5034766;28;45290;-70
2022/07/06 15:06:42;;;;;;;;;1.00;1.00;;;;;30.22;27.53;102011.75;5034849;28;45359;-70
2022/07/06 15:09:07;;;;;;;;;0.00;0.00;;;;;30.44;26.64;102041.56;5034682;28;45404;-69
2022/07/06 15:11:33;;;;;;;;;3.00;1.00;;;;;30.52;26.40;102040.75;5026243;28;45266;-69
2022/07/06 15:13:59;;;;;;;;;0.00;0.00;;;;;30.55;26.51;102024.66;5029674;28;45503;-69
2022/07/06 15:16:24;;;;;;;;;1.00;1.00;;;;;30.66;26.70;102020.72;5034836;28;45362;-69
2022/07/06 15:18:50;;;;;;;;;0.25;0.00;;;;;30.82;25.99;102020.72;5029139;28;45451;-69
2022/07/06 15:21:16;;;;;;;;;0.25;0.25;;;;;31.12;26.32;102008.16;5034837;28;45494;-69
2022/07/06 15:23:41;;;;;;;;;1.00;0.00;;;;;31.40;25.36;102016.94;5034334;28;45336;-70
2022/07/06 15:26:07;;;;;;;;;1.00;0.00;;;;;31.44;25.60;102021.97;5034231;28;45528;-70
2022/07/06 15:28:33;;;;;;;;;0.25;0.25;;;;;31.57;25.21;102016.72;5034421;28;45546;-70
2022/07/06 15:30:58;;;;;;;;;0.75;0.75;;;;;31.55;25.66;102024.38;5034526;28;45359;-69
2022/07/06 15:33:24;;;;;;;;;1.00;1.00;;;;;31.51;25.67;102027.66;5034659;28;45324;-69
2022/07/06 15:35:49;;;;;;;;;2.00;0.25;;;;;31.48;25.24;102019.69;5032696;28;45423;-70
2022/07/06 15:38:15;;;;;;;;;1.50;0.50;;;;;31.55;25.13;102015.19;5015900;28;46753;-69
2022/07/06 15:40:44;;;;;;;;;0.25;0.25;;;;;31.36;25.17;102001.72;5034380;28;45469;-69
2022/07/06 15:43:10;;;;;;;;;0.50;0.50;;;;;31.45;25.27;102003.44;5035271;28;45224;-70
2022/07/06 15:45:35;;;;;;;;;0.00;0.00;;;;;31.47;24.72;102001.34;5037632;28;45235;-70
2022/07/06 15:48:01;;;;;;;;;2.00;0.25;;;;;31.48;25.12;101992.84;5019838;28;45554;-69
2022/07/06 15:50:26;;;;;;;;;1.50;0.00;;;;;31.38;24.69;101986.66;5038483;28;45337;-69
2022/07/06 15:52:52;;;;;;;;;1.00;0.00;;;;;31.22;25.31;101996.88;5037555;28;45370;-70
2022/07/06 15:55:17;;;;;;;;;1.50;1.00;;;;;30.98;25.86;101986.63;5037735;28;45496;-68